createdAt,value
2023-01-26T00:00:23.527Z,8.20
2023-01-26T00:03:13.501Z,7.40
2023-01-26T00:06:07.730Z,8.30
2023-01-26T00:08:59.727Z,7.60
2023-01-26T00:11:50.851Z,8.40
2023-01-26T00:14:52.191Z,7.80
2023-01-26T00:17:41.514Z,6.90
2023-01-26T00:20:31.014Z,8.40
2023-01-26T00:23:20.517Z,8.20
2023-01-26T00:26:10.698Z,8.60
2023-01-26T00:29:00.369Z,8.30
2023-01-26T00:31:50.128Z,7.50
2023-01-26T00:34:39.603Z,6.90
2023-01-26T00:37:29.313Z,8.10
2023-01-26T00:40:18.936Z,8.00
2023-01-26T00:43:07.951Z,7.70
2023-01-26T00:45:57.059Z,8.60
2023-01-26T00:48:47.982Z,8.00
2023-01-26T00:51:37.920Z,7.00
2023-01-26T00:54:27.697Z,8.30
2023-01-26T00:57:17.482Z,8.30
2023-01-26T01:00:07.946Z,8.90
2023-01-26T01:02:57.502Z,8.70
2023-01-26T01:05:46.827Z,9.00
2023-01-26T01:08:35.976Z,9.30
2023-01-26T01:11:25.041Z,10.50
2023-01-26T01:14:14.568Z,10.10
2023-01-26T01:17:04.022Z,8.70
2023-01-26T01:19:53.260Z,9.30
2023-01-26T01:22:43.900Z,8.00
2023-01-26T01:25:34.875Z,9.60
2023-01-26T01:28:23.938Z,9.00
2023-01-26T01:31:14.977Z,9.70
2023-01-26T01:34:04.579Z,8.20
2023-01-26T01:36:55.182Z,9.00
2023-01-26T01:39:44.286Z,9.90
2023-01-26T01:42:33.950Z,9.00
2023-01-26T01:45:25.990Z,8.80
2023-01-26T01:48:25.006Z,9.40
2023-01-26T01:51:17.229Z,8.90
2023-01-26T01:54:09.494Z,9.00
2023-01-26T01:57:00.496Z,9.30
2023-01-26T01:59:52.340Z,9.50
2023-01-26T02:02:44.248Z,9.00
2023-01-26T02:05:35.242Z,8.60
2023-01-26T02:08:27.418Z,9.10
2023-01-26T02:11:22.832Z,8.40
2023-01-26T02:14:12.365Z,10.10
2023-01-26T02:17:02.725Z,10.00
2023-01-26T02:20:27.148Z,8.60
2023-01-26T02:23:44.924Z,9.30
2023-01-26T02:26:36.041Z,7.80
2023-01-26T02:29:25.455Z,9.30
2023-01-26T02:32:14.883Z,9.30
2023-01-26T02:35:04.534Z,8.70
2023-01-26T02:37:53.915Z,8.40
2023-01-26T02:41:04.870Z,6.70
2023-01-26T02:43:54.473Z,7.70
2023-01-26T02:46:43.693Z,8.20
2023-01-26T02:49:48.532Z,9.20
2023-01-26T02:52:38.789Z,7.60
2023-01-26T02:55:33.886Z,8.50
2023-01-26T02:58:23.051Z,8.60
2023-01-26T03:01:12.714Z,8.40
2023-01-26T03:04:09.405Z,8.90
2023-01-26T03:07:01.091Z,8.40
2023-01-26T03:09:50.774Z,9.00
2023-01-26T03:12:40.255Z,9.50
2023-01-26T03:15:42.994Z,9.90
2023-01-26T03:18:52.558Z,8.70
2023-01-26T03:22:02.665Z,9.60
2023-01-26T03:25:10.539Z,10.60
2023-01-26T03:27:59.688Z,10.00
2023-01-26T03:30:50.446Z,9.10
2023-01-26T03:33:40.773Z,8.80
2023-01-26T03:36:30.115Z,10.20
2023-01-26T03:39:38.269Z,10.60
2023-01-26T03:42:46.083Z,8.30
2023-01-26T03:45:54.087Z,8.40
2023-01-26T03:49:03.477Z,8.80
2023-01-26T03:52:11.331Z,9.50
2023-01-26T03:55:19.075Z,9.70
2023-01-26T03:58:09.675Z,8.00
2023-01-26T04:00:58.778Z,10.10
2023-01-26T04:04:06.946Z,9.50
2023-01-26T04:07:14.600Z,9.40
2023-01-26T04:10:09.140Z,6.90
2023-01-26T04:13:18.247Z,10.40
2023-01-26T04:16:31.370Z,9.30
2023-01-26T04:19:39.246Z,8.60
2023-01-26T04:22:29.602Z,9.30
2023-01-26T04:25:20.154Z,8.80
2023-01-26T04:28:09.748Z,8.60
2023-01-26T04:30:59.443Z,8.50
2023-01-26T04:33:48.566Z,8.70
2023-01-26T04:36:38.148Z,9.10
2023-01-26T04:39:28.543Z,9.20
2023-01-26T04:42:18.811Z,9.90
2023-01-26T04:45:10.482Z,9.00
2023-01-26T04:47:59.933Z,9.10
2023-01-26T04:50:56.895Z,9.00
2023-01-26T04:53:47.331Z,8.60
2023-01-26T04:56:37.174Z,9.10
2023-01-26T04:59:26.865Z,8.40
2023-01-26T05:02:21.281Z,9.30
2023-01-26T05:05:10.701Z,9.90
2023-01-26T05:08:01.534Z,10.10
2023-01-26T05:10:52.548Z,9.70
2023-01-26T05:14:02.161Z,9.40
2023-01-26T05:17:13.187Z,8.50
2023-01-26T05:20:22.754Z,8.70
2023-01-26T05:23:31.275Z,8.40
2023-01-26T05:26:43.308Z,9.60
2023-01-26T05:29:36.391Z,9.70
2023-01-26T05:32:27.309Z,8.80
2023-01-26T05:35:18.282Z,9.90
2023-01-26T05:38:07.661Z,8.90
2023-01-26T05:40:58.622Z,10.30
2023-01-26T05:43:47.847Z,8.80
2023-01-26T05:46:54.429Z,9.00
2023-01-26T05:49:46.032Z,9.00
2023-01-26T05:52:42.264Z,9.10
2023-01-26T05:55:33.555Z,9.80
2023-01-26T05:58:25.432Z,9.00
2023-01-26T06:01:14.924Z,9.50
2023-01-26T06:04:10.304Z,9.10
2023-01-26T06:07:06.084Z,10.60
2023-01-26T06:10:05.541Z,9.90
2023-01-26T06:13:14.976Z,9.00
2023-01-26T06:16:09.913Z,8.10
2023-01-26T06:18:59.675Z,9.20
2023-01-26T06:21:49.227Z,8.90
2023-01-26T06:24:38.551Z,8.60
2023-01-26T06:27:30.191Z,8.70
2023-01-26T06:30:21.623Z,8.30
2023-01-26T06:33:14.526Z,8.00
2023-01-26T06:36:05.026Z,9.20
2023-01-26T06:38:58.152Z,8.00
2023-01-26T06:42:18.168Z,9.10
2023-01-26T06:45:07.999Z,8.70
2023-01-26T06:47:57.518Z,9.60
2023-01-26T06:50:46.753Z,9.00
2023-01-26T06:53:38.640Z,9.80
2023-01-26T06:56:39.556Z,8.50
2023-01-26T06:59:43.302Z,8.60
2023-01-26T07:02:46.143Z,7.00
2023-01-26T07:05:36.027Z,8.50
2023-01-26T07:08:25.652Z,7.60
2023-01-26T07:11:20.301Z,7.00
2023-01-26T07:14:10.211Z,8.60
2023-01-26T07:16:59.542Z,10.30
2023-01-26T07:19:48.816Z,10.10
2023-01-26T07:22:38.397Z,9.20
2023-01-26T07:25:28.279Z,7.80
2023-01-26T07:28:18.242Z,8.00
2023-01-26T07:31:13.775Z,8.80
2023-01-26T07:34:08.068Z,7.90
2023-01-26T07:36:57.715Z,9.60
2023-01-26T07:39:46.912Z,8.90
2023-01-26T07:42:36.510Z,10.80
2023-01-26T07:45:41.824Z,8.00
2023-01-26T07:48:31.108Z,8.10
2023-01-26T07:51:20.314Z,7.90
2023-01-26T07:54:10.873Z,8.90
2023-01-26T07:57:00.568Z,9.30
2023-01-26T07:59:51.397Z,7.90
2023-01-26T08:02:42.363Z,7.90
2023-01-26T08:05:39.182Z,9.20
2023-01-26T08:08:28.752Z,8.20
2023-01-26T08:11:28.625Z,9.30
2023-01-26T08:14:24.925Z,8.70
2023-01-26T08:17:17.647Z,10.60
2023-01-26T08:20:09.653Z,13.00
2023-01-26T08:23:00.519Z,13.70
2023-01-26T08:26:11.238Z,13.70
2023-01-26T08:29:07.870Z,12.80
2023-01-26T08:31:58.485Z,14.70
2023-01-26T08:34:48.367Z,20.70
2023-01-26T08:37:40.960Z,20.30
2023-01-26T08:40:33.238Z,22.10
2023-01-26T08:43:23.933Z,25.60
2023-01-26T08:46:15.858Z,24.70
2023-01-26T08:49:05.264Z,27.20
2023-01-26T08:51:57.098Z,28.00
2023-01-26T08:54:47.855Z,26.60
2023-01-26T08:57:40.516Z,28.30
2023-01-26T09:00:36.257Z,28.00
2023-01-26T09:03:27.461Z,26.50
2023-01-26T09:06:17.373Z,26.20
2023-01-26T09:09:14.606Z,24.90
2023-01-26T09:12:06.523Z,28.80
2023-01-26T09:14:59.144Z,25.00
2023-01-26T09:17:52.507Z,20.30
2023-01-26T09:20:44.806Z,20.20
2023-01-26T09:23:46.148Z,20.90
2023-01-26T09:26:38.692Z,19.40
2023-01-26T09:29:41.791Z,19.30
2023-01-26T09:32:31.856Z,31.10
2023-01-26T09:35:23.837Z,20.90
2023-01-26T09:38:16.981Z,18.50
2023-01-26T09:41:39.963Z,17.90
2023-01-26T09:44:33.597Z,19.20
2023-01-26T09:47:49.901Z,22.30
2023-01-26T09:50:46.468Z,20.20
2023-01-26T09:53:53.036Z,19.30
2023-01-26T09:56:43.685Z,20.20
2023-01-26T09:59:39.992Z,21.00
2023-01-26T10:02:56.094Z,20.00
2023-01-26T12:09:47.174Z,10.40
2023-01-26T12:12:41.028Z,11.00
2023-01-26T12:15:37.064Z,10.90
2023-01-26T12:19:15.266Z,11.00
2023-01-26T12:22:38.274Z,11.20
2023-01-26T12:25:37.073Z,12.70
2023-01-26T12:28:40.086Z,12.20
2023-01-26T12:31:37.414Z,11.00
2023-01-26T12:34:32.665Z,11.40
2023-01-26T12:37:52.089Z,10.70
2023-01-26T12:40:45.217Z,12.70
2023-01-26T12:43:45.627Z,11.20
2023-01-26T12:46:37.225Z,11.70
2023-01-26T12:49:40.725Z,11.70
2023-01-26T12:52:39.929Z,12.00
2023-01-26T12:55:30.699Z,12.20
2023-01-26T12:58:23.655Z,12.10
2023-01-26T13:01:13.808Z,11.40
2023-01-26T13:04:08.064Z,12.40
2023-01-26T13:07:07.935Z,12.60
2023-01-26T13:10:08.702Z,13.80
2023-01-26T13:13:05.997Z,12.30
2023-01-26T13:16:17.386Z,13.10
2023-01-26T13:19:09.364Z,13.40
2023-01-26T13:21:59.549Z,14.80
2023-01-26T13:24:58.433Z,13.10
2023-01-26T13:27:57.209Z,12.00
2023-01-26T13:30:46.541Z,12.90
2023-01-26T13:33:36.796Z,13.30
2023-01-26T13:36:30.844Z,11.20
2023-01-26T13:39:34.773Z,10.90
2023-01-26T13:42:31.842Z,13.30
2023-01-26T13:45:36.557Z,11.10
2023-01-26T13:48:37.395Z,9.60
2023-01-26T13:51:31.077Z,10.10
2023-01-26T13:54:21.233Z,10.40
2023-01-26T13:57:11.339Z,9.30
2023-01-26T14:00:03.592Z,11.50
2023-01-26T14:02:56.195Z,10.90
2023-01-26T14:05:52.724Z,11.00
2023-01-26T14:08:45.907Z,11.80
2023-01-26T14:11:35.253Z,10.90
2023-01-26T14:14:26.450Z,10.60
2023-01-26T14:17:27.976Z,10.30
2023-01-26T14:20:27.273Z,10.30
2023-01-26T14:23:19.294Z,11.30
2023-01-26T14:26:20.745Z,10.50
2023-01-26T14:29:18.418Z,10.80
2023-01-26T14:32:16.801Z,11.10
2023-01-26T14:35:19.408Z,10.70
2023-01-26T14:38:11.240Z,10.80
2023-01-26T14:41:00.906Z,9.70
2023-01-26T14:43:57.103Z,9.70
2023-01-26T14:46:50.137Z,8.60
2023-01-26T14:49:52.259Z,10.30
2023-01-26T14:52:44.350Z,10.20
2023-01-26T14:55:39.105Z,7.20
2023-01-26T14:58:30.159Z,10.00
2023-01-26T15:01:23.134Z,10.20
2023-01-26T15:04:27.431Z,10.60
2023-01-26T15:07:44.039Z,10.60
2023-01-26T15:10:38.134Z,10.00
2023-01-26T15:13:30.099Z,9.90
2023-01-26T15:16:23.149Z,9.60
2023-01-26T15:19:24.946Z,12.60
2023-01-26T15:22:19.518Z,13.80
2023-01-26T15:25:17.332Z,13.40
2023-01-26T15:28:05.984Z,13.20
2023-01-26T15:30:55.926Z,12.50
2023-01-26T15:33:52.181Z,12.50
2023-01-26T15:36:48.026Z,11.60
2023-01-26T15:39:37.426Z,13.80
2023-01-26T15:42:28.924Z,12.50
2023-01-26T15:45:23.414Z,11.80
2023-01-26T15:48:12.595Z,12.50
2023-01-26T15:51:01.422Z,11.90
2023-01-26T15:53:50.148Z,10.60
2023-01-26T15:56:39.494Z,11.30
2023-01-26T15:59:28.217Z,10.40
2023-01-26T18:06:34.868Z,13.80
2023-01-26T18:09:24.170Z,15.50
2023-01-26T18:12:13.232Z,18.80
2023-01-26T18:15:01.952Z,21.60
2023-01-26T18:17:50.947Z,24.30
2023-01-26T18:20:40.049Z,35.10
2023-01-26T18:23:28.768Z,27.00
2023-01-26T18:26:18.301Z,20.70
2023-01-26T18:29:07.074Z,19.90
2023-01-26T18:31:55.883Z,16.30
2023-01-26T18:34:44.803Z,16.00
2023-01-26T18:37:36.398Z,20.20
2023-01-26T18:40:25.262Z,19.40
2023-01-26T18:43:14.337Z,17.30
2023-01-26T18:46:03.305Z,14.90
2023-01-26T18:48:53.367Z,16.20
2023-01-26T18:51:47.913Z,17.60
2023-01-26T18:54:36.659Z,16.80
2023-01-26T18:57:25.403Z,15.90
2023-01-26T19:00:14.326Z,16.40
2023-01-26T19:03:03.054Z,16.40
2023-01-26T19:05:53.059Z,16.20
2023-01-26T19:08:42.622Z,16.20
2023-01-26T19:11:34.105Z,17.60
2023-01-26T19:14:23.306Z,16.00
2023-01-26T19:17:12.188Z,16.70
2023-01-26T19:20:00.823Z,22.30
2023-01-26T19:22:54.235Z,31.80
2023-01-26T19:25:43.185Z,24.70
2023-01-26T19:28:32.378Z,20.00
2023-01-26T19:31:21.930Z,16.30
2023-01-26T19:34:13.290Z,18.10
2023-01-26T19:37:02.201Z,19.10
2023-01-26T19:39:51.039Z,18.20
2023-01-26T19:42:40.250Z,17.30
2023-01-26T19:45:29.488Z,16.60
2023-01-26T19:48:18.807Z,15.30
2023-01-26T19:51:15.269Z,16.10
2023-01-26T19:54:06.847Z,16.50
2023-01-26T19:56:55.818Z,17.60
2023-01-26T19:59:44.697Z,19.00
2023-01-26T20:02:33.733Z,20.60
2023-01-26T20:05:22.559Z,24.10
2023-01-26T20:08:11.524Z,18.70
2023-01-26T20:11:05.204Z,15.10
2023-01-26T20:13:59.058Z,14.20
2023-01-26T20:16:47.933Z,17.10
2023-01-26T20:19:37.059Z,15.20
2023-01-26T20:22:26.250Z,18.10
2023-01-26T20:25:19.900Z,17.50
2023-01-26T20:28:08.841Z,16.10
2023-01-26T20:31:17.108Z,19.10
2023-01-26T20:34:12.488Z,16.00
2023-01-26T20:37:01.472Z,15.40
2023-01-26T20:39:50.733Z,15.80
2023-01-26T20:42:39.673Z,14.40
2023-01-26T20:45:28.571Z,14.30
2023-01-26T20:48:17.432Z,12.80
2023-01-26T20:51:10.297Z,14.30
2023-01-26T20:53:59.213Z,13.00
2023-01-26T20:56:49.915Z,12.30
2023-01-26T20:59:39.436Z,12.80
2023-01-26T21:02:28.336Z,11.50
2023-01-26T21:05:19.876Z,13.10
2023-01-26T21:08:08.604Z,11.80
2023-01-26T21:10:57.663Z,11.30
2023-01-26T21:13:46.855Z,10.30
2023-01-26T21:16:42.792Z,10.70
2023-01-26T21:19:33.294Z,10.50
2023-01-26T21:22:22.397Z,9.40
2023-01-26T21:25:11.678Z,11.20
2023-01-26T21:28:22.169Z,11.40
2023-01-26T21:31:14.091Z,10.70
2023-01-26T21:34:02.921Z,12.40
2023-01-26T21:36:51.603Z,10.70
2023-01-26T21:39:40.713Z,11.40
2023-01-26T21:42:29.478Z,11.60
2023-01-26T21:45:37.028Z,10.60
2023-01-26T21:48:31.706Z,10.30
2023-01-26T21:51:39.886Z,11.90
2023-01-26T21:54:29.958Z,10.00
2023-01-26T21:57:37.148Z,11.00
2023-01-26T22:00:26.690Z,11.20
2023-01-26T22:03:15.423Z,10.90
2023-01-26T22:06:04.479Z,11.10
2023-01-26T22:08:53.775Z,11.80
2023-01-26T22:11:42.562Z,11.70
2023-01-26T22:14:31.559Z,12.60
2023-01-26T22:17:20.641Z,11.70
2023-01-26T22:20:10.235Z,9.20
2023-01-26T22:22:59.904Z,10.70
2023-01-26T22:25:48.772Z,10.70
2023-01-26T22:28:37.586Z,11.80
2023-01-26T22:31:28.054Z,11.80
2023-01-26T22:34:16.741Z,10.90
2023-01-26T22:37:06.042Z,13.10
2023-01-26T22:39:54.716Z,12.30
2023-01-26T22:42:43.399Z,11.30
2023-01-26T22:45:32.442Z,10.20
2023-01-26T22:48:21.295Z,12.00
2023-01-26T22:51:21.648Z,12.60
2023-01-26T22:54:10.462Z,11.10
2023-01-26T22:56:59.121Z,13.10
2023-01-26T22:59:47.929Z,12.50
2023-01-26T23:02:36.961Z,13.20
2023-01-26T23:05:25.759Z,10.20
2023-01-26T23:08:14.385Z,11.50
2023-01-26T23:11:11.161Z,12.40
2023-01-26T23:14:00.811Z,11.80
2023-01-26T23:16:49.662Z,12.00
2023-01-26T23:19:38.306Z,11.20
2023-01-26T23:22:27.049Z,12.60
2023-01-26T23:25:34.234Z,12.20
2023-01-26T23:28:29.061Z,13.30
2023-01-26T23:31:18.394Z,12.70
2023-01-26T23:34:07.147Z,13.90
2023-01-26T23:36:55.716Z,12.60
2023-01-26T23:39:44.523Z,11.70
2023-01-26T23:42:41.531Z,11.80
2023-01-26T23:45:39.084Z,11.70
2023-01-26T23:48:28.291Z,12.90
2023-01-26T23:51:17.155Z,13.60
2023-01-26T23:54:05.834Z,14.60
2023-01-26T23:56:54.573Z,14.10
2023-01-26T23:59:43.268Z,14.50
